createdAt,value
2023-05-22T00:01:15.038Z,3.80
2023-05-22T00:03:42.078Z,4.07
2023-05-22T00:06:10.270Z,3.42
2023-05-22T00:08:37.327Z,3.97
2023-05-22T00:11:05.081Z,4.25
2023-05-22T00:13:32.231Z,4.60
2023-05-22T00:15:59.369Z,4.68
2023-05-22T00:18:27.346Z,3.47
2023-05-22T00:20:54.428Z,3.63
2023-05-22T00:23:22.082Z,5.13
2023-05-22T00:25:50.758Z,4.90
2023-05-22T00:28:17.830Z,4.43
2023-05-22T00:30:46.008Z,4.20
2023-05-22T00:33:13.216Z,4.35
2023-05-22T00:35:40.197Z,4.10
2023-05-22T00:38:08.046Z,4.45
2023-05-22T00:40:35.244Z,4.72
2023-05-22T00:43:08.473Z,4.32
2023-05-22T00:45:36.431Z,4.78
2023-05-22T00:48:03.517Z,4.97
2023-05-22T00:50:30.878Z,4.57
2023-05-22T00:52:57.956Z,4.90
2023-05-22T00:55:24.978Z,4.20
2023-05-22T00:57:52.686Z,4.28
2023-05-22T01:00:20.469Z,4.50
2023-05-22T01:02:47.966Z,4.47
2023-05-22T01:05:18.365Z,5.22
2023-05-22T01:07:48.969Z,4.50
2023-05-22T01:10:16.220Z,5.07
2023-05-22T01:13:17.473Z,4.38
2023-05-22T01:16:02.381Z,4.90
2023-05-22T01:18:41.855Z,4.20
2023-05-22T01:21:30.271Z,5.00
2023-05-22T01:24:16.852Z,5.10
2023-05-22T01:26:46.988Z,4.57
2023-05-22T01:29:38.671Z,4.57
2023-05-22T01:32:07.596Z,4.57
2023-05-22T01:34:37.277Z,4.90
2023-05-22T01:37:05.426Z,4.20
2023-05-22T01:39:33.303Z,4.70
2023-05-22T01:42:00.667Z,5.68
2023-05-22T01:44:28.035Z,5.22
2023-05-22T01:46:59.125Z,5.13
2023-05-22T01:49:27.982Z,4.57
2023-05-22T01:52:03.709Z,6.18
2023-05-22T01:54:39.256Z,4.72
2023-05-22T01:57:14.467Z,5.00
2023-05-22T01:59:47.573Z,4.85
2023-05-22T02:02:18.049Z,5.07
2023-05-22T02:05:00.776Z,5.18
2023-05-22T02:07:28.611Z,5.10
2023-05-22T02:09:57.921Z,5.38
2023-05-22T02:12:25.743Z,5.40
2023-05-22T02:14:52.935Z,4.88
2023-05-22T02:17:22.262Z,6.13
2023-05-22T02:19:49.367Z,4.70
2023-05-22T02:22:16.473Z,4.88
2023-05-22T02:24:50.686Z,4.63
2023-05-22T02:27:17.843Z,4.85
2023-05-22T02:29:44.821Z,6.10
2023-05-22T02:32:11.882Z,5.25
2023-05-22T02:34:38.951Z,4.35
2023-05-22T02:37:06.118Z,5.65
2023-05-22T02:39:33.314Z,5.43
2023-05-22T02:42:00.834Z,5.65
2023-05-22T02:44:31.212Z,5.45
2023-05-22T02:46:59.512Z,4.90
2023-05-22T02:49:26.529Z,5.47
2023-05-22T02:51:53.645Z,5.10
2023-05-22T02:54:20.848Z,6.28
2023-05-22T02:56:47.932Z,5.35
2023-05-22T02:59:16.552Z,5.60
2023-05-22T03:01:44.479Z,4.82
2023-05-22T03:04:13.952Z,5.43
2023-05-22T03:06:41.857Z,4.55
2023-05-22T03:09:09.035Z,5.10
2023-05-22T03:11:35.998Z,4.90
2023-05-22T03:14:03.729Z,5.03
2023-05-22T03:16:32.944Z,5.70
2023-05-22T03:19:13.968Z,4.88
2023-05-22T03:21:41.534Z,5.10
2023-05-22T03:24:08.697Z,4.88
2023-05-22T03:26:35.947Z,5.07
2023-05-22T03:29:06.556Z,5.47
2023-05-22T03:31:34.855Z,4.45
2023-05-22T03:34:07.776Z,6.03
2023-05-22T03:36:37.187Z,4.80
2023-05-22T03:39:05.510Z,4.80
2023-05-22T03:41:37.242Z,5.72
2023-05-22T03:44:05.833Z,5.60
2023-05-22T03:46:33.830Z,5.45
2023-05-22T03:49:02.085Z,5.63
2023-05-22T03:51:29.096Z,5.88
2023-05-22T03:53:56.238Z,6.10
2023-05-22T03:56:23.254Z,5.57
2023-05-22T03:58:50.620Z,5.90
2023-05-22T04:01:18.142Z,5.82
2023-05-22T04:03:45.251Z,6.53
2023-05-22T04:06:13.868Z,6.93
2023-05-22T04:08:41.210Z,5.60
2023-05-22T04:11:08.381Z,6.65
2023-05-22T04:13:35.512Z,6.30
2023-05-22T04:16:04.309Z,5.30
2023-05-22T04:18:31.427Z,6.22
2023-05-22T04:20:58.481Z,6.82
2023-05-22T04:23:25.637Z,7.20
2023-05-22T04:25:52.907Z,7.03
2023-05-22T04:28:23.245Z,6.03
2023-05-22T04:30:50.408Z,6.90
2023-05-22T04:33:19.369Z,6.80
2023-05-22T04:35:46.443Z,7.93
2023-05-22T04:38:13.465Z,8.13
2023-05-22T04:40:40.683Z,6.57
2023-05-22T04:43:08.634Z,6.40
2023-05-22T04:45:35.694Z,7.32
2023-05-22T04:48:03.222Z,7.78
2023-05-22T04:50:36.137Z,6.85
2023-05-22T04:53:06.447Z,6.75
2023-05-22T04:55:37.065Z,6.40
2023-05-22T04:58:05.966Z,6.85
2023-05-22T05:00:33.300Z,6.97
2023-05-22T05:03:00.666Z,6.40
2023-05-22T05:05:28.010Z,7.93
2023-05-22T05:07:56.332Z,7.45
2023-05-22T05:10:23.818Z,7.55
2023-05-22T05:12:51.351Z,6.35
2023-05-22T05:15:18.912Z,8.40
2023-05-22T05:17:46.643Z,7.65
2023-05-22T05:20:14.699Z,6.53
2023-05-22T05:22:44.008Z,7.38
2023-05-22T05:25:13.181Z,7.60
2023-05-22T05:27:40.709Z,7.32
2023-05-22T05:30:09.471Z,6.82
2023-05-22T05:33:02.232Z,6.80
2023-05-22T05:35:39.599Z,8.15
2023-05-22T05:38:10.042Z,7.93
2023-05-22T05:40:39.952Z,7.90
2023-05-22T05:43:09.263Z,8.65
2023-05-22T05:45:36.760Z,7.22
2023-05-22T05:48:06.502Z,7.15
2023-05-22T05:50:35.892Z,7.18
2023-05-22T05:53:03.375Z,7.53
2023-05-22T05:55:32.720Z,7.30
2023-05-22T05:58:03.540Z,7.45
2023-05-22T06:00:50.850Z,8.20
2023-05-22T06:03:18.061Z,8.30
2023-05-22T06:05:54.070Z,8.32
2023-05-22T06:08:27.145Z,9.23
2023-05-22T06:10:54.632Z,9.30
2023-05-22T06:13:33.548Z,8.73
2023-05-22T06:16:06.433Z,10.77
2023-05-22T06:18:34.746Z,9.90
2023-05-22T06:21:02.005Z,8.73
2023-05-22T06:23:29.058Z,8.43
2023-05-22T06:25:57.424Z,10.52
2023-05-22T06:28:25.820Z,9.65
2023-05-22T06:30:53.000Z,10.60
2023-05-22T06:33:22.955Z,11.45
2023-05-22T06:35:50.573Z,10.77
2023-05-22T06:38:17.843Z,11.50
2023-05-22T06:40:45.245Z,10.05
2023-05-22T06:43:21.762Z,11.48
2023-05-22T06:45:56.228Z,11.40
2023-05-22T06:48:23.324Z,12.38
2023-05-22T06:50:59.520Z,11.38
2023-05-22T06:53:27.050Z,10.82
2023-05-22T06:55:54.842Z,11.57
2023-05-22T06:58:32.205Z,11.57
2023-05-22T07:01:00.826Z,13.00
2023-05-22T07:03:34.929Z,12.02
2023-05-22T07:06:20.474Z,11.30
2023-05-22T07:08:47.930Z,8.88
2023-05-22T07:11:14.873Z,9.13
2023-05-22T07:13:41.984Z,11.38
2023-05-22T07:16:09.095Z,9.20
2023-05-22T07:18:36.466Z,10.23
2023-05-22T07:21:03.602Z,9.52
2023-05-22T07:23:30.674Z,10.27
2023-05-22T07:25:57.930Z,10.85
2023-05-22T07:28:31.136Z,10.30
2023-05-22T07:31:07.768Z,11.63
2023-05-22T07:33:34.982Z,10.57
2023-05-22T07:36:02.097Z,12.55
2023-05-22T07:38:29.241Z,11.18
2023-05-22T07:41:00.346Z,9.95
2023-05-22T07:43:28.986Z,12.77
2023-05-22T07:45:57.397Z,12.45
2023-05-22T07:48:28.470Z,13.43
2023-05-22T07:50:55.650Z,12.50
2023-05-22T07:53:23.235Z,14.18
2023-05-22T07:55:53.421Z,11.70
2023-05-22T07:58:21.050Z,11.98
2023-05-22T08:00:49.895Z,12.50
2023-05-22T08:03:18.022Z,12.20
2023-05-22T08:05:45.546Z,11.45
2023-05-22T08:08:12.814Z,13.73
2023-05-22T08:13:10.542Z,11.77
2023-05-22T08:15:37.579Z,10.82
2023-05-22T08:18:04.640Z,13.05
2023-05-22T08:20:31.730Z,13.30
2023-05-22T08:22:59.340Z,11.63
2023-05-22T08:25:26.324Z,11.88
2023-05-22T08:27:53.392Z,12.05
2023-05-22T08:30:20.612Z,10.65
2023-05-22T08:32:47.715Z,11.60
2023-05-22T08:35:14.826Z,12.25
2023-05-22T08:37:41.827Z,12.90
2023-05-22T08:40:14.785Z,11.93
2023-05-22T08:42:42.474Z,11.90
2023-05-22T08:45:09.890Z,13.45
2023-05-22T08:47:37.936Z,11.07
2023-05-22T08:50:05.289Z,10.88
2023-05-22T08:52:42.904Z,10.32
2023-05-22T08:55:10.890Z,10.65
2023-05-22T08:57:38.380Z,12.73
2023-05-22T09:00:07.905Z,11.30
2023-05-22T09:02:35.932Z,9.90
2023-05-22T09:05:05.379Z,9.50
2023-05-22T09:07:32.501Z,10.52
2023-05-22T09:09:59.483Z,9.23
2023-05-22T09:12:29.346Z,9.00
2023-05-22T09:14:58.749Z,9.23
2023-05-22T09:17:27.299Z,9.63
2023-05-22T09:19:54.676Z,10.48
2023-05-22T09:22:24.285Z,8.95
2023-05-22T09:24:52.058Z,10.18
2023-05-22T09:27:23.431Z,10.75
2023-05-22T09:29:59.294Z,10.07
2023-05-22T09:32:29.928Z,9.45
2023-05-22T09:35:04.175Z,9.95
2023-05-22T09:37:35.786Z,10.13
2023-05-22T09:40:07.577Z,9.18
2023-05-22T09:42:35.857Z,9.93
2023-05-22T09:45:08.204Z,9.65
2023-05-22T09:47:37.433Z,10.55
2023-05-22T09:50:07.270Z,9.07
2023-05-22T09:52:35.622Z,11.50
2023-05-22T09:55:07.332Z,9.32
2023-05-22T09:57:45.122Z,10.35
2023-05-22T10:00:15.703Z,9.38
2023-05-22T10:02:48.443Z,9.30
2023-05-22T10:05:24.947Z,9.15
2023-05-22T10:07:56.667Z,8.63
2023-05-22T10:10:25.455Z,9.50
2023-05-22T10:13:00.546Z,8.02
2023-05-22T10:15:28.489Z,9.55
2023-05-22T10:17:56.390Z,8.45
2023-05-22T10:20:24.328Z,8.00
2023-05-22T10:22:51.664Z,8.00
2023-05-22T10:25:18.676Z,8.80
2023-05-22T10:27:46.288Z,8.68
2023-05-22T10:30:40.244Z,9.02
2023-05-22T10:33:41.014Z,9.02
2023-05-22T10:36:12.792Z,8.00
2023-05-22T10:38:46.042Z,9.82
2023-05-22T10:41:13.951Z,8.35
2023-05-22T10:43:43.132Z,9.30
2023-05-22T10:46:17.037Z,8.43
2023-05-22T10:48:49.709Z,10.05
2023-05-22T10:51:23.836Z,8.30
2023-05-22T10:53:59.141Z,8.52
2023-05-22T10:56:34.406Z,8.73
2023-05-22T10:59:05.022Z,8.30
2023-05-22T11:01:37.862Z,7.87
2023-05-22T11:04:16.067Z,7.65
2023-05-22T11:07:04.189Z,8.85
2023-05-22T11:09:31.420Z,9.10
2023-05-22T11:12:21.213Z,8.13
2023-05-22T11:14:49.006Z,8.15
2023-05-22T11:17:23.199Z,7.50
2023-05-22T11:20:07.451Z,8.23
2023-05-22T11:22:42.421Z,8.07
2023-05-22T11:25:17.871Z,6.65
2023-05-22T11:27:46.585Z,7.57
2023-05-22T11:30:15.062Z,6.70
2023-05-22T11:32:47.100Z,8.00
2023-05-22T11:35:19.385Z,8.15
2023-05-22T11:37:47.373Z,7.70
2023-05-22T11:40:17.132Z,7.65
2023-05-22T11:42:44.554Z,6.80
2023-05-22T11:45:12.073Z,7.22
2023-05-22T11:47:39.900Z,8.00
2023-05-22T11:50:10.399Z,8.52
2023-05-22T11:52:40.414Z,7.15
2023-05-22T11:55:08.737Z,7.93
2023-05-22T11:57:36.967Z,7.63
2023-05-22T12:00:08.904Z,7.68
2023-05-22T12:02:39.425Z,7.20
2023-05-22T12:05:10.261Z,6.90
2023-05-22T12:07:37.769Z,8.40
2023-05-22T12:10:07.314Z,6.25
2023-05-22T12:12:34.969Z,6.85
2023-05-22T12:15:06.680Z,8.50
2023-05-22T12:17:37.231Z,8.25
2023-05-22T12:20:05.512Z,8.43
2023-05-22T12:22:32.725Z,7.32
2023-05-22T12:24:59.784Z,7.95
2023-05-22T12:27:33.173Z,7.60
2023-05-22T12:30:10.412Z,6.72
2023-05-22T12:32:39.823Z,7.40
2023-05-22T12:35:07.767Z,7.47
2023-05-22T12:37:37.391Z,9.05
2023-05-22T12:40:05.310Z,8.55
2023-05-22T12:42:32.320Z,7.90
2023-05-22T12:45:01.809Z,8.48
2023-05-22T12:47:28.947Z,7.60
2023-05-22T12:49:56.023Z,9.52
2023-05-22T12:52:26.440Z,9.00
2023-05-22T12:54:56.653Z,8.90
2023-05-22T12:57:28.430Z,8.73
2023-05-22T12:59:55.823Z,8.82
2023-05-22T13:02:23.061Z,8.35
2023-05-22T13:04:50.262Z,9.30
2023-05-22T13:07:17.420Z,8.48
2023-05-22T13:09:44.576Z,7.90
2023-05-22T13:12:11.761Z,8.18
2023-05-22T13:14:40.520Z,9.15
2023-05-22T13:17:08.230Z,7.95
2023-05-22T13:19:35.458Z,7.82
2023-05-22T13:22:02.750Z,8.38
2023-05-22T13:24:30.472Z,9.00
2023-05-22T13:26:57.558Z,9.55
2023-05-22T13:29:25.494Z,9.07
2023-05-22T13:31:52.697Z,9.02
2023-05-22T13:34:20.635Z,8.60
2023-05-22T13:36:47.864Z,9.48
2023-05-22T13:39:15.006Z,8.98
2023-05-22T13:41:42.185Z,8.23
2023-05-22T13:44:09.298Z,7.93
2023-05-22T13:46:37.966Z,8.02
2023-05-22T13:49:07.274Z,8.35
2023-05-22T13:51:34.286Z,8.55
2023-05-22T13:54:03.148Z,9.05
2023-05-22T13:56:30.269Z,8.90
2023-05-22T13:58:57.443Z,8.43
2023-05-22T14:01:24.819Z,7.82
2023-05-22T14:03:54.821Z,8.52
2023-05-22T14:06:22.061Z,8.60
2023-05-22T14:08:49.077Z,8.32
2023-05-22T14:11:16.208Z,8.30
2023-05-22T14:13:43.838Z,7.63
2023-05-22T14:16:10.891Z,8.80
2023-05-22T14:18:41.406Z,8.00
2023-05-22T14:21:08.448Z,7.90
2023-05-22T14:23:35.578Z,7.13
2023-05-22T14:26:02.595Z,7.20
2023-05-22T14:28:31.756Z,6.60
2023-05-22T14:30:59.063Z,6.20
2023-05-22T14:33:26.458Z,6.55
2023-05-22T14:35:55.022Z,6.82
2023-05-22T14:38:22.122Z,6.07
2023-05-22T14:40:49.850Z,6.43
2023-05-22T14:43:16.915Z,4.95
2023-05-22T14:45:45.332Z,5.05
2023-05-22T14:48:13.119Z,5.70
2023-05-22T14:50:40.226Z,5.15
2023-05-22T14:53:07.271Z,5.13
2023-05-22T14:55:35.723Z,4.97
2023-05-22T14:58:02.756Z,4.68
2023-05-22T15:00:29.754Z,4.95
2023-05-22T15:02:57.272Z,5.38
2023-05-22T15:05:26.733Z,5.28
2023-05-22T15:07:54.997Z,5.43
2023-05-22T15:10:25.860Z,5.18
2023-05-22T15:12:53.273Z,5.65
2023-05-22T15:15:20.967Z,5.72
2023-05-22T15:17:48.087Z,5.65
2023-05-22T15:20:15.277Z,5.00
2023-05-22T15:22:42.274Z,5.15
2023-05-22T15:25:17.488Z,4.93
2023-05-22T15:27:44.615Z,5.47
2023-05-22T15:30:12.369Z,5.88
2023-05-22T15:32:39.632Z,5.65
2023-05-22T15:35:07.788Z,5.75
2023-05-22T15:37:36.555Z,6.28
2023-05-22T15:40:04.544Z,5.65
2023-05-22T15:42:31.749Z,6.15
2023-05-22T15:45:00.275Z,5.35
2023-05-22T15:47:27.563Z,6.05
2023-05-22T15:49:54.623Z,5.25
2023-05-22T15:52:23.453Z,5.85
2023-05-22T15:54:50.683Z,5.82
2023-05-22T15:57:17.793Z,4.97
2023-05-22T15:59:47.395Z,4.97
2023-05-22T16:02:14.710Z,4.85
2023-05-22T16:04:41.856Z,4.15
2023-05-22T16:07:08.885Z,4.35
2023-05-22T16:09:36.357Z,5.18
2023-05-22T16:12:05.135Z,4.40
2023-05-22T16:14:32.185Z,3.70
2023-05-22T16:16:59.369Z,3.28
2023-05-22T16:19:28.925Z,4.32
2023-05-22T16:21:56.345Z,3.83
2023-05-22T16:24:23.983Z,4.80
2023-05-22T16:26:50.975Z,3.70
2023-05-22T16:29:21.372Z,4.25
2023-05-22T16:31:52.164Z,2.88
2023-05-22T16:34:19.313Z,3.45
2023-05-22T16:36:46.862Z,3.15
2023-05-22T16:39:15.486Z,3.35
2023-05-22T16:41:42.806Z,2.60
2023-05-22T16:44:09.969Z,2.33
2023-05-22T16:46:36.927Z,2.00
2023-05-22T16:49:04.056Z,1.58
2023-05-22T16:51:31.252Z,1.40
2023-05-22T16:53:58.248Z,2.05
2023-05-22T16:56:26.046Z,1.50
2023-05-22T16:58:53.167Z,1.10
2023-05-22T17:01:21.918Z,1.38
2023-05-22T17:03:49.188Z,2.10
2023-05-22T17:06:18.285Z,1.52
2023-05-22T17:08:47.005Z,1.38
2023-05-22T17:11:14.139Z,1.50
2023-05-22T17:13:41.317Z,1.63
2023-05-22T17:16:08.463Z,1.38
2023-05-22T17:18:37.203Z,1.75
2023-05-22T17:21:04.576Z,1.55
2023-05-22T17:23:31.741Z,2.28
2023-05-22T17:25:59.024Z,1.90
2023-05-22T17:28:26.124Z,1.73
2023-05-22T17:30:53.195Z,1.67
2023-05-22T17:33:20.399Z,1.90
2023-05-22T17:35:47.704Z,1.58
2023-05-22T17:38:15.314Z,1.40
2023-05-22T17:40:45.887Z,1.75
2023-05-22T17:43:13.779Z,1.92
2023-05-22T17:45:41.830Z,1.52
2023-05-22T17:48:11.279Z,1.67
2023-05-22T17:50:40.147Z,1.83
2023-05-22T17:53:07.562Z,1.00
2023-05-22T17:55:34.704Z,1.35
2023-05-22T17:58:02.304Z,1.30
2023-05-22T18:00:32.026Z,1.52
2023-05-22T18:02:59.307Z,2.00
2023-05-22T18:05:26.566Z,1.33
2023-05-22T18:07:55.082Z,1.92
2023-05-22T18:10:24.155Z,1.40
2023-05-22T18:12:54.139Z,1.30
2023-05-22T18:15:21.764Z,2.33
2023-05-22T18:17:53.861Z,1.85
2023-05-22T18:20:21.154Z,2.17
2023-05-22T18:22:49.843Z,2.45
2023-05-22T18:25:17.002Z,2.03
2023-05-22T18:27:44.285Z,1.92
2023-05-22T18:30:13.194Z,1.50
2023-05-22T18:32:41.453Z,2.53
2023-05-22T18:35:11.545Z,1.92
2023-05-22T18:37:41.240Z,1.98
2023-05-22T18:40:10.311Z,1.83
2023-05-22T18:42:38.571Z,2.42
2023-05-22T18:45:07.861Z,1.90
2023-05-22T18:47:35.191Z,2.55
2023-05-22T18:50:02.911Z,2.20
2023-05-22T18:52:31.596Z,2.20
2023-05-22T18:54:59.456Z,2.45
2023-05-22T18:57:27.377Z,2.25
2023-05-22T18:59:54.630Z,2.53
2023-05-22T19:02:22.439Z,1.85
2023-05-22T19:04:53.404Z,2.38
2023-05-22T19:07:21.689Z,2.47
2023-05-22T19:09:50.696Z,2.67
2023-05-22T19:12:18.068Z,2.15
2023-05-22T19:14:45.189Z,2.65
2023-05-22T19:17:12.655Z,3.00
2023-05-22T19:19:39.896Z,3.17
2023-05-22T19:22:07.069Z,2.45
2023-05-22T19:24:36.519Z,3.13
2023-05-22T19:27:03.830Z,2.20
2023-05-22T19:29:30.920Z,2.35
2023-05-22T19:32:01.623Z,2.30
2023-05-22T19:34:29.727Z,2.83
2023-05-22T19:36:57.939Z,2.22
2023-05-22T19:39:25.911Z,2.40
2023-05-22T19:41:56.481Z,2.75
2023-05-22T19:44:24.757Z,2.42
2023-05-22T19:46:51.763Z,2.33
2023-05-22T19:49:19.064Z,2.42
2023-05-22T19:51:48.973Z,2.10
2023-05-22T19:54:16.657Z,2.67
2023-05-22T19:56:43.800Z,2.72
2023-05-22T19:59:13.605Z,3.30
2023-05-22T20:01:40.741Z,2.67
2023-05-22T20:04:08.267Z,2.92
2023-05-22T20:06:36.446Z,2.38
2023-05-22T20:09:05.794Z,3.38
2023-05-22T20:11:33.075Z,2.47
2023-05-22T20:14:02.559Z,2.95
2023-05-22T20:16:31.174Z,3.50
2023-05-22T20:18:58.426Z,3.53
2023-05-22T20:21:25.696Z,3.63
2023-05-22T20:23:53.771Z,2.65
2023-05-22T20:26:21.789Z,2.80
2023-05-22T20:28:48.944Z,3.60
2023-05-22T20:31:16.206Z,2.30
2023-05-22T20:33:43.438Z,2.80
2023-05-22T20:36:10.774Z,2.78
2023-05-22T20:38:40.740Z,3.05
2023-05-22T20:41:09.654Z,2.92
2023-05-22T20:43:37.333Z,3.10
2023-05-22T20:46:04.465Z,3.20
2023-05-22T20:48:31.555Z,2.95
2023-05-22T20:50:58.720Z,3.05
2023-05-22T20:53:26.053Z,3.88
2023-05-22T20:55:53.453Z,3.33
2023-05-22T20:58:20.780Z,3.92
2023-05-22T21:00:49.526Z,3.15
2023-05-22T21:03:17.878Z,4.30
2023-05-22T21:05:44.949Z,5.22
2023-05-22T21:08:11.949Z,3.80
2023-05-22T21:10:39.050Z,4.22
2023-05-22T21:13:06.767Z,3.88
2023-05-22T21:15:33.683Z,4.72
2023-05-22T21:18:00.776Z,4.47
2023-05-22T21:20:27.918Z,4.75
2023-05-22T21:22:55.001Z,4.93
2023-05-22T21:25:21.966Z,5.47
2023-05-22T21:27:49.330Z,5.82
2023-05-22T21:30:16.434Z,4.78
2023-05-22T21:32:43.560Z,6.50
2023-05-22T21:35:10.734Z,6.93
2023-05-22T21:37:37.869Z,5.90
2023-05-22T21:40:05.400Z,6.45
2023-05-22T21:42:45.038Z,5.53
2023-05-22T21:45:13.995Z,5.28
2023-05-22T21:47:42.413Z,5.63
2023-05-22T21:50:10.125Z,6.95
2023-05-22T21:52:37.141Z,5.53
2023-05-22T21:55:04.591Z,6.20
2023-05-22T21:57:31.691Z,5.43
2023-05-22T21:59:58.796Z,6.95
2023-05-22T22:02:26.074Z,5.22
2023-05-22T22:04:53.076Z,5.95
2023-05-22T22:07:20.241Z,5.28
2023-05-22T22:09:47.213Z,5.85
2023-05-22T22:12:14.203Z,5.15
2023-05-22T22:14:41.150Z,5.43
2023-05-22T22:17:09.143Z,5.75
2023-05-22T22:19:36.308Z,4.90
2023-05-22T22:22:03.588Z,6.10
2023-05-22T22:24:30.643Z,4.63
2023-05-22T22:26:57.594Z,6.30
2023-05-22T22:29:24.580Z,5.15
2023-05-22T22:31:52.939Z,5.03
2023-05-22T22:34:19.956Z,5.10
2023-05-22T22:36:47.456Z,6.13
2023-05-22T22:39:14.543Z,4.82
2023-05-22T22:41:43.276Z,5.18
2023-05-22T22:44:10.684Z,5.53
2023-05-22T22:46:38.013Z,5.47
2023-05-22T22:49:05.237Z,6.07
2023-05-22T22:51:32.267Z,5.55
2023-05-22T22:53:59.281Z,4.90
2023-05-22T22:56:29.432Z,5.75
2023-05-22T22:58:57.436Z,3.58
2023-05-22T23:01:24.921Z,5.47
2023-05-22T23:03:52.233Z,4.38
2023-05-22T23:06:19.690Z,5.25
2023-05-22T23:08:46.738Z,4.50
2023-05-22T23:11:13.792Z,4.43
2023-05-22T23:13:43.190Z,4.30
2023-05-22T23:16:10.442Z,4.65
2023-05-22T23:18:37.647Z,5.07
2023-05-22T23:21:04.737Z,4.65
2023-05-22T23:23:32.041Z,5.63
2023-05-22T23:25:59.236Z,4.38
2023-05-22T23:28:26.325Z,4.30
2023-05-22T23:30:53.317Z,4.50
2023-05-22T23:33:21.472Z,5.15
2023-05-22T23:35:48.455Z,4.78
2023-05-22T23:38:15.498Z,4.35
2023-05-22T23:40:42.672Z,4.90
2023-05-22T23:43:09.652Z,4.65
2023-05-22T23:45:36.688Z,4.20
2023-05-22T23:48:04.240Z,3.67
2023-05-22T23:50:31.379Z,3.22
2023-05-22T23:52:58.345Z,3.22
2023-05-22T23:55:25.349Z,3.25
2023-05-22T23:57:52.321Z,3.20
